Time;durP1;ratioP1;P1;durP2;ratioP2;P2;SDS_P1;SDS_P2;PMS_P1;PMS_P2;Temp;Humidity;BMP_temperature;BMP_pressure;BME280_temperature;BME280_humidity;BME280_pressure;Samples;Min_cycle;Max_cycle;Signal;HPM_P1;HPM_P2
2024/04/12 00:01:47;;;;;;;10.00;5.40;;;9.10;1.00;;;;;;5532049;25;20452;-43
2024/04/12 00:04:18;;;;;;;7.93;5.47;;;9.10;1.00;;;;;;5531088;25;20518;-42
2024/04/12 00:06:49;;;;;;;7.27;5.27;;;9.10;1.00;;;;;;5531621;25;20437;-43
2024/04/12 00:09:18;;;;;;;7.83;5.67;;;9.10;1.00;;;;;;5531122;25;20503;-43
2024/04/12 00:11:49;;;;;;;7.20;5.87;;;9.00;1.00;;;;;;5531236;25;20461;-43
2024/04/12 00:14:15;;;;;;;6.73;5.83;;;9.00;1.00;;;;;;5528795;25;20498;-42
2024/04/12 00:16:44;;;;;;;8.50;5.53;;;9.00;1.00;;;;;;5528546;25;20512;-41
2024/04/12 00:19:18;;;;;;;10.13;5.80;;;9.00;1.00;;;;;;5528796;25;20512;-42
2024/04/12 00:21:46;;;;;;;8.83;6.30;;;9.00;1.00;;;;;;5530284;26;20508;-43
2024/04/12 00:24:12;;;;;;;7.27;5.47;;;8.90;1.00;;;;;;5530372;25;20516;-42
2024/04/12 00:26:46;;;;;;;7.63;5.50;;;8.90;1.00;;;;;;5527506;25;20772;-43
2024/04/12 00:29:30;;;;;;;7.47;5.73;;;8.90;1.00;;;;;;5528450;25;20452;-42
2024/04/12 00:32:04;;;;;;;7.20;6.30;;;8.80;1.00;;;;;;5529007;25;20464;-44
2024/04/12 00:34:37;;;;;;;9.00;5.20;;;8.80;1.00;;;;;;5527209;25;20512;-41
2024/04/12 00:37:07;;;;;;;6.03;5.40;;;8.80;1.00;;;;;;5527747;25;20483;-41
2024/04/12 00:39:38;;;;;;;7.40;6.10;;;8.80;1.00;;;;;;5528719;25;20445;-42
2024/04/12 00:42:07;;;;;;;7.43;5.40;;;8.70;3.30;;;;;;5529281;25;20505;-43
2024/04/12 00:44:37;;;;;;;10.57;6.03;;;8.70;43.20;;;;;;5528386;25;20452;-42
2024/04/12 00:47:07;;;;;;;9.07;5.97;;;8.70;73.60;;;;;;5526328;25;20452;-42
2024/04/12 00:49:36;;;;;;;8.43;5.77;;;8.70;62.50;;;;;;5528832;25;20497;-42
2024/04/12 00:52:02;;;;;;;9.07;6.73;;;8.70;51.80;;;;;;5527884;25;20444;-43
2024/04/12 00:54:29;;;;;;;5.90;5.40;;;8.70;45.60;;;;;;5530047;25;20537;-43
2024/04/12 00:56:56;;;;;;;10.67;5.27;;;8.60;10.70;;;;;;5526390;25;20456;-42
2024/04/12 00:59:23;;;;;;;7.50;5.50;;;8.60;20.90;;;;;;5528195;25;20448;-41
2024/04/12 01:01:49;;;;;;;8.00;6.07;;;8.50;7.80;;;;;;5529228;26;20436;-44
2024/04/12 01:04:19;;;;;;;6.60;5.67;;;8.50;42.20;;;;;;5527449;25;20496;-41
2024/04/12 01:06:45;;;;;;;9.50;5.70;;;8.40;99.90;;;;;;5527688;25;20512;-42
2024/04/12 01:09:11;;;;;;;6.27;5.67;;;8.40;99.90;;;;;;5527659;25;20448;-42
2024/04/12 01:11:38;;;;;;;9.63;6.10;;;8.30;99.90;;;;;;5528723;25;20467;-43
2024/04/12 01:14:10;;;;;;;9.53;5.30;;;8.30;99.90;;;;;;5528988;25;20499;-43
2024/04/12 01:16:38;;;;;;;6.50;5.80;;;8.30;99.90;;;;;;5527427;25;20503;-41
2024/04/12 01:19:05;;;;;;;5.17;4.67;;;8.20;99.90;;;;;;5528317;25;20500;-42
2024/04/12 01:21:31;;;;;;;6.10;5.50;;;8.20;99.90;;;;;;5529132;25;20574;-42
2024/04/12 01:23:57;;;;;;;8.17;6.10;;;8.20;99.90;;;;;;5529039;25;20448;-42
2024/04/12 01:26:24;;;;;;;6.20;5.13;;;8.20;99.90;;;;;;5528203;25;20514;-43
2024/04/12 01:28:51;;;;;;;7.30;5.90;;;8.20;99.90;;;;;;5527814;25;20227;-43
2024/04/12 01:31:19;;;;;;;5.60;5.00;;;8.20;99.90;;;;;;5529507;25;20429;-42
2024/04/12 01:33:49;;;;;;;6.27;5.67;;;8.10;99.90;;;;;;5528209;25;20436;-42
2024/04/12 01:36:21;;;;;;;5.07;4.60;;;8.10;99.90;;;;;;5527060;25;20464;-43
2024/04/12 01:38:53;;;;;;;8.13;5.20;;;8.00;99.90;;;;;;5528652;25;20529;-43
2024/04/12 01:41:23;;;;;;;6.10;5.50;;;8.00;99.90;;;;;;5531874;25;20516;-42
2024/04/12 01:43:52;;;;;;;5.77;5.13;;;8.00;99.90;;;;;;5529285;25;20715;-42
2024/04/12 01:46:21;;;;;;;5.80;5.20;;;7.90;99.90;;;;;;5528688;25;20444;-44
2024/04/12 01:48:47;;;;;;;6.27;5.37;;;7.90;99.90;;;;;;5530467;25;20488;-42
2024/04/12 01:51:13;;;;;;;7.43;5.80;;;7.90;99.90;;;;;;5531731;25;20444;-41
2024/04/12 01:53:40;;;;;;;7.73;4.73;;;7.90;99.90;;;;;;5531179;25;20507;-42
2024/04/12 01:56:10;;;;;;;10.50;6.50;;;7.90;99.90;;;;;;5527297;25;20496;-42
2024/04/12 01:58:39;;;;;;;5.70;5.07;;;7.90;99.90;;;;;;5527721;25;20597;-42
2024/04/12 02:01:06;;;;;;;6.90;5.77;;;7.90;99.90;;;;;;5529610;25;20432;-44
2024/04/12 02:03:32;;;;;;;5.17;4.70;;;7.80;99.90;;;;;;5528764;25;20452;-42
2024/04/12 02:06:05;;;;;;;5.83;5.23;;;7.80;99.90;;;;;;5529788;25;20585;-42
2024/04/12 02:08:32;;;;;;;6.70;4.87;;;7.70;1.00;;;;;;5530931;25;20449;-42
2024/04/12 02:10:58;;;;;;;6.43;4.73;;;7.70;1.00;;;;;;5529247;26;20452;-43
2024/04/12 02:13:29;;;;;;;6.23;5.50;;;7.70;1.00;;;;;;5530119;25;20764;-42
2024/04/12 02:15:56;;;;;;;5.00;4.50;;;7.70;1.00;;;;;;5530195;25;20491;-42
2024/04/12 02:18:22;;;;;;;6.23;5.40;;;7.60;1.00;;;;;;5530970;25;20951;-42
2024/04/12 02:20:49;;;;;;;6.77;5.90;;;7.60;1.00;;;;;;5533791;25;20455;-43
2024/04/12 02:23:15;;;;;;;6.40;5.63;;;7.60;1.00;;;;;;5533390;25;20535;-43
2024/04/12 02:25:42;;;;;;;5.80;5.20;;;7.60;1.00;;;;;;5533708;25;21030;-43
2024/04/12 02:28:12;;;;;;;7.77;5.43;;;7.60;1.00;;;;;;5530988;25;20444;-44
2024/04/12 02:30:45;;;;;;;5.10;4.53;;;7.60;1.00;;;;;;5533228;25;20495;-42
2024/04/12 02:33:18;;;;;;;6.27;5.13;;;7.60;1.00;;;;;;5530724;25;20456;-43
2024/04/12 02:35:45;;;;;;;7.73;5.13;;;7.50;1.00;;;;;;5531465;25;20452;-43
2024/04/12 02:38:15;;;;;;;6.70;5.07;;;7.50;1.00;;;;;;5532088;25;20452;-42
2024/04/12 02:40:45;;;;;;;6.83;4.73;;;7.50;1.00;;;;;;5530116;25;20529;-43
2024/04/12 02:43:15;;;;;;;8.23;5.20;;;7.50;1.00;;;;;;5530518;25;20526;-48
2024/04/12 02:45:58;;;;;;;5.43;4.93;;;7.40;1.00;;;;;;5527745;25;20592;-43
2024/04/12 02:48:24;;;;;;;6.90;5.03;;;7.40;1.00;;;;;;5530168;25;20448;-44
2024/04/12 02:50:55;;;;;;;9.70;5.80;;;7.40;1.00;;;;;;5529645;25;20564;-42
2024/04/12 02:53:25;;;;;;;6.20;5.40;;;7.40;1.00;;;;;;5529437;25;20494;-42
2024/04/12 02:56:00;;;;;;;6.27;4.90;;;7.40;1.00;;;;;;5527870;25;20579;-42
2024/04/12 03:01:48;;;;;;;7.50;6.00;;;7.30;1.00;;;;;;5528717;25;20536;-42
2024/04/12 03:04:14;;;;;;;9.00;4.57;;;7.30;1.00;;;;;;5531094;25;20448;-43
2024/04/12 03:06:40;;;;;;;5.27;4.80;;;7.30;1.00;;;;;;5531522;26;20331;-44
2024/04/12 03:09:06;;;;;;;6.70;5.20;;;7.30;1.00;;;;;;5531433;25;20552;-42
2024/04/12 03:11:34;;;;;;;6.87;4.80;;;7.30;1.00;;;;;;5531499;25;20448;-42
2024/04/12 03:14:08;;;;;;;5.77;5.17;;;7.30;1.00;;;;;;5531079;25;20223;-41
2024/04/12 03:16:35;;;;;;;6.80;5.10;;;7.30;1.00;;;;;;5530243;25;20520;-42
2024/04/12 03:19:07;;;;;;;5.33;4.80;;;7.20;1.00;;;;;;5498697;26;20456;-42
2024/04/12 03:21:33;;;;;;;5.40;4.90;;;7.20;1.00;;;;;;5500372;25;20449;-44
2024/04/12 03:24:01;;;;;;;5.60;4.43;;;7.10;1.00;;;;;;5530242;25;20441;-44
2024/04/12 03:26:27;;;;;;;5.60;5.03;;;7.00;1.00;;;;;;5530332;25;20890;-42
2024/04/12 03:28:59;;;;;;;5.93;4.77;;;7.00;1.00;;;;;;5531069;25;20461;-43
2024/04/12 03:31:25;;;;;;;5.90;4.80;;;7.00;1.00;;;;;;5531348;25;20752;-43
2024/04/12 03:33:54;;;;;;;5.07;4.60;;;7.00;1.00;;;;;;5530468;25;20546;-42
2024/04/12 03:36:26;;;;;;;6.60;4.50;;;7.00;1.00;;;;;;5529130;25;20488;-43
2024/04/12 03:41:57;;;;;;;6.63;5.07;;;7.00;1.00;;;;;;5527760;25;20445;-42
2024/04/12 03:44:25;;;;;;;8.23;5.03;;;6.90;1.00;;;;;;5528068;25;20520;-43
2024/04/12 03:46:52;;;;;;;6.17;5.30;;;6.90;1.00;;;;;;5529453;25;20557;-41
2024/04/12 03:49:21;;;;;;;5.00;4.53;;;6.90;1.00;;;;;;5530575;25;20441;-43
2024/04/12 03:51:48;;;;;;;8.27;5.07;;;6.90;1.00;;;;;;5530136;25;20436;-42
2024/04/12 03:54:18;;;;;;;6.70;5.07;;;6.90;1.00;;;;;;5530221;25;20461;-42
2024/04/12 03:56:49;;;;;;;6.27;4.83;;;6.90;1.00;;;;;;5529688;25;20727;-44
2024/04/12 03:59:35;;;;;;;7.60;4.37;;;6.90;1.00;;;;;;5498434;26;20468;-44
2024/04/12 04:02:07;;;;;;;5.90;5.00;;;6.90;1.00;;;;;;5529729;25;20487;-45
2024/04/12 04:04:44;;;;;;;6.83;3.97;;;6.80;1.00;;;;;;5528215;25;20565;-43
2024/04/12 04:07:10;;;;;;;7.30;4.97;;;6.80;1.00;;;;;;5528834;25;20566;-41
2024/04/12 04:09:38;;;;;;;7.67;5.20;;;6.80;1.00;;;;;;5494966;26;20496;-44
2024/04/12 04:12:04;;;;;;;6.50;5.50;;;6.80;1.00;;;;;;5528761;25;20444;-44
2024/04/12 04:14:32;;;;;;;5.87;5.20;;;6.70;1.00;;;;;;5527552;25;20453;-43
2024/04/12 04:17:00;;;;;;;5.70;4.97;;;6.80;1.00;;;;;;5496327;26;20507;-43
2024/04/12 04:19:31;;;;;;;5.40;4.57;;;6.80;1.00;;;;;;5528414;25;20464;-42
2024/04/12 04:22:21;;;;;;;6.60;4.63;;;6.80;1.00;;;;;;5530580;26;20509;-45
2024/04/12 04:24:51;;;;;;;5.63;5.13;;;6.70;1.00;;;;;;5529425;25;20441;-42
2024/04/12 04:27:17;;;;;;;6.17;4.70;;;6.70;1.00;;;;;;5467995;26;20546;-42
2024/04/12 04:29:46;;;;;;;7.80;5.80;;;6.70;1.00;;;;;;5530451;25;20543;-45
2024/04/12 04:32:11;;;;;;;6.23;4.87;;;6.60;1.00;;;;;;5529198;25;20453;-42
2024/04/12 04:34:37;;;;;;;5.60;5.07;;;6.60;1.00;;;;;;5496685;26;20571;-42
2024/04/12 04:37:05;;;;;;;5.77;4.73;;;6.60;1.00;;;;;;5465099;26;20258;-44
2024/04/12 04:39:32;;;;;;;6.83;5.20;;;6.70;1.00;;;;;;5528920;25;20328;-43
2024/04/12 04:41:58;;;;;;;5.77;5.23;;;6.70;1.00;;;;;;5528410;25;20504;-43
2024/04/12 04:44:25;;;;;;;8.60;5.80;;;6.70;1.00;;;;;;5527201;25;20505;-41
2024/04/12 04:46:51;;;;;;;8.70;5.20;;;6.70;1.00;;;;;;5529951;25;20567;-44
2024/04/12 04:49:19;;;;;;;7.10;6.00;;;6.70;1.00;;;;;;5529112;25;20440;-42
2024/04/12 04:51:45;;;;;;;6.27;4.80;;;6.80;1.00;;;;;;5527764;25;20553;-43
2024/04/12 04:54:11;;;;;;;7.03;4.67;;;6.80;1.00;;;;;;5525589;25;20688;-41
2024/04/12 04:56:46;;;;;;;5.27;4.60;;;6.80;1.00;;;;;;5525942;25;20505;-43
2024/04/12 04:59:16;;;;;;;7.70;4.93;;;6.80;1.00;;;;;;5490997;26;20455;-43
2024/04/12 05:01:48;;;;;;;8.83;6.20;;;6.80;1.00;;;;;;5525517;25;20492;-43
2024/04/12 05:04:21;;;;;;;11.10;6.60;;;6.80;1.00;;;;;;5528395;25;20444;-43
2024/04/12 05:06:47;;;;;;;9.27;6.17;;;6.80;1.00;;;;;;5526954;25;20504;-42
2024/04/12 05:09:18;;;;;;;5.80;5.20;;;6.90;1.00;;;;;;5524397;26;20456;-43
2024/04/12 05:11:49;;;;;;;6.90;6.20;;;6.90;1.00;;;;;;5521354;25;20444;-44
2024/04/12 05:17:03;;;;;;;6.17;5.57;;;7.00;1.00;;;;;;5524729;25;20515;-44
2024/04/12 05:19:43;;;;;;;6.30;4.87;;;7.00;1.00;;;;;;5524595;25;20501;-43
2024/04/12 05:22:19;;;;;;;8.57;5.83;;;7.10;1.00;;;;;;5523475;25;20713;-43
2024/04/12 05:24:52;;;;;;;7.20;5.10;;;7.20;1.00;;;;;;5522455;25;20535;-42
2024/04/12 05:27:17;;;;;;;7.07;5.53;;;7.20;1.00;;;;;;5490518;26;20460;-43
2024/04/12 05:29:45;;;;;;;8.50;5.60;;;7.20;1.00;;;;;;5518253;25;20550;-43
2024/04/12 05:32:12;;;;;;;7.60;6.40;;;7.20;1.00;;;;;;5518499;25;20239;-42
2024/04/12 05:34:40;;;;;;;8.70;5.97;;;7.30;1.00;;;;;;5487979;25;20866;-43
2024/04/12 05:37:08;;;;;;;6.57;5.40;;;7.40;1.00;;;;;;5522301;25;20561;-44
2024/04/12 05:39:35;;;;;;;10.33;5.30;;;7.40;1.00;;;;;;5524577;25;20694;-43
2024/04/12 05:42:09;;;;;;;6.20;5.60;;;7.50;1.00;;;;;;5461726;25;20511;-43
2024/04/12 05:44:35;;;;;;;6.80;6.10;;;7.60;1.00;;;;;;5527195;25;20452;-43
2024/04/12 05:47:02;;;;;;;6.67;5.97;;;7.70;1.00;;;;;;5522606;25;20449;-43
2024/04/12 05:49:30;;;;;;;6.70;5.57;;;7.70;1.00;;;;;;5523850;25;20460;-46
2024/04/12 05:52:00;;;;;;;9.37;6.43;;;7.90;1.00;;;;;;5523709;26;20472;-42
2024/04/12 05:54:39;;;;;;;6.77;6.07;;;8.00;1.00;;;;;;5525320;25;20910;-43
2024/04/12 05:57:06;;;;;;;6.87;5.90;;;8.10;1.00;;;;;;5524749;25;20711;-43
2024/04/12 05:59:33;;;;;;;7.57;6.00;;;8.20;99.90;;;;;;5524485;25;20552;-44
2024/04/12 06:02:01;;;;;;;7.13;6.43;;;8.30;99.90;;;;;;5526526;26;20460;-43
2024/04/12 06:04:27;;;;;;;10.30;7.40;;;8.50;99.90;;;;;;5526198;25;20452;-45
2024/04/12 06:06:54;;;;;;;8.43;6.10;;;8.70;99.90;;;;;;5527219;26;20456;-43
2024/04/12 06:09:20;;;;;;;8.30;6.20;;;8.90;99.90;;;;;;5526933;25;20236;-46
2024/04/12 06:11:56;;;;;;;16.40;7.17;;;9.00;55.90;;;;;;5526352;25;20460;-42
2024/04/12 06:14:24;;;;;;;10.10;6.17;;;9.10;1.00;;;;;;5493037;25;20596;-45
2024/04/12 06:16:56;;;;;;;7.47;6.30;;;9.20;1.00;;;;;;5527246;25;20496;-43
2024/04/12 06:19:24;;;;;;;7.87;6.40;;;9.30;1.00;;;;;;5494021;26;20452;-43
2024/04/12 06:21:50;;;;;;;7.30;6.00;;;9.40;99.90;;;;;;5525179;25;20508;-44
2024/04/12 06:24:17;;;;;;;7.83;5.70;;;9.50;99.90;;;;;;5492324;26;20557;-43
2024/04/12 06:26:47;;;;;;;11.60;6.00;;;9.70;99.90;;;;;;5493562;25;20461;-42
2024/04/12 06:29:16;;;;;;;10.73;6.47;;;9.80;1.00;;;;;;5527048;25;20444;-43
2024/04/12 06:31:44;;;;;;;8.10;6.47;;;10.00;99.90;;;;;;5530299;25;20455;-43
2024/04/12 06:34:12;;;;;;;7.70;6.20;;;10.20;99.90;;;;;;5531987;25;20452;-43
2024/04/12 06:36:45;;;;;;;7.33;6.20;;;10.40;1.00;;;;;;5530681;25;20456;-43
2024/04/12 06:39:14;;;;;;;9.53;6.80;;;10.60;99.90;;;;;;5529838;25;20452;-45
2024/04/12 06:41:45;;;;;;;7.33;6.07;;;10.80;99.90;;;;;;5529769;25;20463;-44
2024/04/12 06:44:19;;;;;;;10.10;6.50;;;11.10;7.20;;;;;;5494856;26;20512;-44
2024/04/12 06:46:57;;;;;;;6.70;4.40;;;11.30;1.00;;;;;;5530122;25;20503;-49
2024/04/12 06:49:26;;;;;;;6.20;3.47;;;12.10;1.00;;;;;;5497298;26;20483;-46
2024/04/12 06:54:42;;;;;;;8.83;5.00;;;13.70;99.90;;;;;;5529704;25;20636;-46
2024/04/12 06:57:19;;;;;;;8.27;5.03;;;14.60;1.00;;;;;;5527685;25;20520;-48
2024/04/12 06:59:53;;;;;;;9.17;5.90;;;15.20;1.00;;;;;;5496182;26;20577;-48
2024/04/12 07:02:23;;;;;;;9.03;5.00;;;15.60;99.90;;;;;;5527187;25;20505;-46
2024/04/12 07:04:52;;;;;;;11.73;5.53;;;16.00;99.90;;;;;;5497493;25;20496;-46
2024/04/12 07:07:22;;;;;;;7.63;5.20;;;16.40;98.40;;;;;;5495896;26;20469;-48
2024/04/12 07:09:57;;;;;;;5.50;4.70;;;16.70;1.00;;;;;;5529268;25;21026;-48
2024/04/12 07:12:27;;;;;;;5.77;5.17;;;16.90;1.00;;;;;;5528554;25;20460;-46
2024/04/12 07:14:54;;;;;;;11.77;5.20;;;17.10;1.00;;;;;;5497313;25;20452;-48
2024/04/12 07:17:20;;;;;;;8.53;5.40;;;17.20;1.00;;;;;;5528661;25;20494;-47
2024/04/12 07:19:49;;;;;;;8.33;5.03;;;17.40;1.00;;;;;;5527537;25;20488;-46
2024/04/12 07:22:26;;;;;;;6.93;5.03;;;17.60;1.00;;;;;;5495275;25;20462;-50
2024/04/12 07:24:53;;;;;;;5.40;4.43;;;17.80;1.00;;;;;;5527560;25;20831;-47
2024/04/12 07:27:22;;;;;;;5.27;4.10;;;18.10;1.00;;;;;;5528148;25;20452;-47
2024/04/12 07:29:49;;;;;;;7.43;4.33;;;18.30;1.00;;;;;;5527651;25;20738;-45
2024/04/12 07:32:15;;;;;;;4.43;3.80;;;18.30;1.00;;;;;;5528139;25;20485;-49
2024/04/12 07:34:48;;;;;;;6.30;3.83;;;18.40;1.00;;;;;;5527998;25;20475;-46
2024/04/12 07:37:31;;;;;;;5.83;3.90;;;18.50;1.00;;;;;;5527496;25;20726;-46
2024/04/12 07:42:45;;;;;;;5.97;4.37;;;19.20;1.00;;;;;;5525719;25;20972;-46
2024/04/12 07:45:23;;;;;;;5.63;3.90;;;19.40;1.00;;;;;;5527579;26;20970;-51
2024/04/12 07:47:52;;;;;;;6.87;4.40;;;19.60;1.00;;;;;;5495712;26;20472;-46
2024/04/12 07:50:31;;;;;;;5.30;4.10;;;19.70;1.00;;;;;;5527124;25;20549;-47
2024/04/12 07:53:10;;;;;;;5.00;3.83;;;19.90;1.00;;;;;;5526016;25;20803;-46
2024/04/12 07:55:44;;;;;;;9.00;4.50;;;20.00;1.00;;;;;;5528965;25;20761;-47
2024/04/12 07:58:10;;;;;;;7.10;5.20;;;20.20;1.00;;;;;;5528323;25;20488;-46
2024/04/12 08:00:45;;;;;;;4.03;3.20;;;20.40;1.00;;;;;;5527710;25;20570;-46
2024/04/12 08:03:14;;;;;;;8.17;5.10;;;20.60;1.00;;;;;;5529127;25;20468;-49
2024/04/12 08:05:59;;;;;;;7.13;5.00;;;20.80;1.00;;;;;;5493254;25;21017;-48
2024/04/12 08:08:28;;;;;;;9.33;7.03;;;20.90;1.00;;;;;;5525231;25;21559;-49
2024/04/12 08:10:57;;;;;;;5.07;3.80;;;21.00;1.00;;;;;;5494786;25;20448;-47
2024/04/12 08:13:37;;;;;;;7.17;6.47;;;20.80;1.00;;;;;;5527986;25;20453;-48
2024/04/12 08:16:08;;;;;;;7.53;6.73;;;20.60;1.00;;;;;;5494351;26;20503;-48
2024/04/12 08:18:35;;;;;;;9.00;8.03;;;20.30;1.00;;;;;;5527966;25;20532;-46
2024/04/12 08:21:02;;;;;;;9.23;7.80;;;20.00;1.00;;;;;;5527593;25;20813;-47
2024/04/12 08:23:29;;;;;;;10.30;8.77;;;19.90;1.00;;;;;;5528037;25;20448;-46
2024/04/12 08:25:58;;;;;;;8.80;7.90;;;19.80;1.00;;;;;;5529314;25;20448;-46
2024/04/12 08:28:24;;;;;;;10.70;8.73;;;19.60;1.00;;;;;;5526933;25;20506;-49
2024/04/12 08:30:53;;;;;;;11.47;6.67;;;19.60;1.00;;;;;;5527491;25;20500;-47
2024/04/12 08:33:24;;;;;;;8.27;7.47;;;19.60;1.00;;;;;;5527130;25;20752;-48
2024/04/12 08:35:57;;;;;;;10.40;8.23;;;19.50;1.00;;;;;;5513881;25;20845;-47
2024/04/12 08:38:23;;;;;;;13.10;8.03;;;19.30;1.00;;;;;;5493024;25;20442;-50
2024/04/12 08:40:55;;;;;;;10.73;8.40;;;19.30;1.00;;;;;;5507990;25;20450;-47
2024/04/12 08:43:41;;;;;;;6.43;5.77;;;19.40;1.00;;;;;;5510406;25;20275;-47
2024/04/12 08:46:16;;;;;;;7.10;6.40;;;19.70;1.00;;;;;;5472665;26;20533;-48
2024/04/12 08:48:45;;;;;;;8.93;7.07;;;20.10;1.00;;;;;;5488488;26;20517;-48
2024/04/12 08:51:13;;;;;;;8.97;5.47;;;20.60;1.00;;;;;;5458777;26;20565;-47
2024/04/12 08:53:44;;;;;;;6.97;5.70;;;20.90;1.00;;;;;;5456511;26;20521;-45
2024/04/12 08:56:17;;;;;;;7.33;4.80;;;21.20;1.00;;;;;;5459105;26;20680;-47
2024/04/12 08:58:48;;;;;;;5.93;4.37;;;21.70;1.00;;;;;;5490273;26;20438;-46
2024/04/12 09:01:15;;;;;;;7.70;4.77;;;22.10;1.00;;;;;;5457436;26;20478;-47
2024/04/12 09:03:44;;;;;;;4.17;3.60;;;22.50;1.00;;;;;;5457576;26;20465;-47
2024/04/12 09:06:14;;;;;;;6.60;5.90;;;22.70;1.00;;;;;;5458005;26;20705;-47
2024/04/12 09:08:42;;;;;;;6.07;5.00;;;22.70;1.00;;;;;;5489177;26;20530;-48
2024/04/12 09:11:07;;;;;;;5.10;4.17;;;22.90;1.00;;;;;;5458890;26;20482;-46
2024/04/12 09:13:35;;;;;;;7.33;5.67;;;23.20;1.00;;;;;;5491178;26;20478;-49
2024/04/12 09:16:03;;;;;;;4.27;3.70;;;23.60;1.00;;;;;;5456682;26;20530;-47
2024/04/12 09:18:43;;;;;;;7.17;4.43;;;23.80;1.00;;;;;;5484768;26;20500;-48
2024/04/12 09:21:14;;;;;;;5.63;4.70;;;23.90;1.00;;;;;;5486962;26;20457;-48
2024/04/12 09:23:43;;;;;;;8.07;6.23;;;23.80;1.00;;;;;;5487049;26;20462;-47
2024/04/12 09:26:39;;;;;;;4.40;4.00;;;23.50;1.00;;;;;;5487438;26;20492;-47
2024/04/12 09:29:09;;;;;;;9.63;4.13;;;23.60;1.00;;;;;;5486583;26;20552;-48
2024/04/12 09:34:29;;;;;;;7.20;5.20;;;24.00;1.00;;;;;;5487560;26;20575;-47
2024/04/12 09:36:56;;;;;;;6.53;5.80;;;24.00;1.00;;;;;;5489189;26;20510;-46
2024/04/12 09:39:23;;;;;;;6.60;5.40;;;24.30;1.00;;;;;;5487542;26;20461;-47
2024/04/12 09:42:03;;;;;;;9.20;6.83;;;24.80;1.00;;;;;;5488249;26;20454;-49
2024/04/12 09:44:38;;;;;;;10.53;7.03;;;24.90;1.00;;;;;;5458965;26;20518;-49
2024/04/12 10:37:23;;;;;;;4.90;3.87;;;27.60;1.00;;;;;;5488056;26;20482;-49
2024/04/12 10:39:50;;;;;;;5.37;3.73;;;28.00;1.00;;;;;;5490721;26;20465;-48
2024/04/12 10:42:20;;;;;;;3.80;3.20;;;28.40;1.00;;;;;;5490599;26;20756;-50
2024/04/12 10:44:51;;;;;;;7.07;5.27;;;28.40;1.00;;;;;;5486716;26;20469;-48
2024/04/12 10:47:20;;;;;;;9.07;4.47;;;28.40;1.00;;;;;;5489992;26;21051;-49
2024/04/12 10:49:46;;;;;;;5.33;3.87;;;28.40;1.00;;;;;;5491623;26;20733;-47
2024/04/12 10:52:13;;;;;;;4.17;3.23;;;28.30;1.00;;;;;;5489681;26;20595;-48
2024/04/12 10:54:42;;;;;;;4.70;3.00;;;28.20;1.00;;;;;;5486952;26;20453;-48
2024/04/12 10:57:10;;;;;;;4.93;3.73;;;28.60;1.00;;;;;;5488696;26;20512;-48
2024/04/12 10:59:41;;;;;;;5.83;3.43;;;28.80;1.00;;;;;;5486846;26;20580;-48
2024/04/12 11:02:10;;;;;;;4.57;3.70;;;28.60;1.00;;;;;;5485741;26;20517;-50
2024/04/12 11:07:23;;;;;;;3.40;2.90;;;28.70;1.00;;;;;;5487817;26;20549;-48
2024/04/12 11:10:03;;;;;;;4.33;2.90;;;28.50;1.00;;;;;;5461279;25;20452;-50
2024/04/12 11:12:45;;;;;;;4.30;3.00;;;28.50;1.00;;;;;;5526394;25;20282;-45
2024/04/12 11:32:13;;;;;;;5.43;2.60;;;29.40;1.00;;;;;;5520165;25;20538;-46
2024/04/12 11:34:41;;;;;;;7.00;3.20;;;29.60;1.00;;;;;;5519289;25;20930;-46
2024/04/12 11:37:09;;;;;;;6.00;2.73;;;29.20;1.00;;;;;;5520385;25;20942;-46
2024/04/12 11:39:35;;;;;;;5.80;4.47;;;28.80;1.00;;;;;;5492321;26;20448;-44
2024/04/12 11:42:03;;;;;;;4.30;3.50;;;28.20;1.00;;;;;;5524448;25;20752;-47
2024/04/12 11:44:33;;;;;;;7.20;3.77;;;27.90;1.00;;;;;;5524622;25;20508;-46
2024/04/12 11:47:02;;;;;;;7.63;3.17;;;27.70;1.00;;;;;;5463906;26;20837;-46
2024/04/12 11:49:30;;;;;;;8.37;3.07;;;27.70;1.00;;;;;;5526147;25;20468;-48
2024/04/12 11:51:57;;;;;;;6.93;2.60;;;28.30;1.00;;;;;;5522546;25;21114;-48
2024/04/12 11:54:29;;;;;;;5.53;2.90;;;29.00;1.00;;;;;;5491214;25;20511;-46
2024/04/12 11:56:59;;;;;;;6.53;3.07;;;29.30;1.00;;;;;;5521982;25;20507;-47
2024/04/12 11:59:27;;;;;;;5.30;3.37;;;29.30;1.00;;;;;;5523072;25;20525;-44
2024/04/12 12:01:58;;;;;;;3.00;2.33;;;29.80;1.00;;;;;;5525651;25;20492;-47
2024/04/12 12:04:33;;;;;;;11.17;3.53;;;30.30;1.00;;;;;;5490926;25;20460;-49
2024/04/12 12:07:04;;;;;;;9.33;3.40;;;30.70;1.00;;;;;;5524581;26;20624;-48
2024/04/12 12:09:31;;;;;;;5.13;3.33;;;31.00;1.00;;;;;;5525225;26;20425;-49
2024/04/12 12:11:58;;;;;;;8.03;3.27;;;30.80;1.00;;;;;;5522551;25;20516;-45
2024/04/12 12:14:25;;;;;;;3.47;2.77;;;31.00;1.00;;;;;;5524662;25;20417;-52
2024/04/12 12:16:51;;;;;;;7.50;2.67;;;31.10;1.00;;;;;;5523580;25;20850;-53
2024/04/12 12:19:18;;;;;;;4.03;2.33;;;31.40;1.00;;;;;;5488726;26;20464;-51
2024/04/12 12:21:49;;;;;;;7.63;2.93;;;31.70;1.00;;;;;;5522227;25;20701;-45
2024/04/12 12:24:14;;;;;;;2.90;1.80;;;31.70;1.00;;;;;;5521949;25;20488;-46
2024/04/12 12:26:40;;;;;;;4.57;2.53;;;32.40;1.00;;;;;;5522966;25;20776;-47
2024/04/12 12:29:06;;;;;;;6.67;2.90;;;32.00;1.00;;;;;;5493225;26;20220;-45
2024/04/12 12:31:34;;;;;;;2.43;2.17;;;32.10;1.00;;;;;;5524947;25;20242;-44
2024/04/12 12:34:00;;;;;;;3.70;2.50;;;32.60;1.00;;;;;;5524506;25;20312;-46
2024/04/12 12:36:29;;;;;;;6.20;2.27;;;33.00;1.00;;;;;;5526015;25;20600;-46
2024/04/12 12:38:55;;;;;;;3.70;2.70;;;32.40;1.00;;;;;;5527452;25;20251;-55
2024/04/12 12:41:21;;;;;;;4.10;2.83;;;31.10;1.00;;;;;;5523520;25;20882;-52
2024/04/12 12:43:47;;;;;;;3.57;2.10;;;30.50;1.00;;;;;;5524581;25;20267;-49
2024/04/12 12:46:17;;;;;;;4.83;2.20;;;30.90;1.00;;;;;;5522760;26;20232;-48
2024/04/12 12:48:43;;;;;;;3.83;2.10;;;31.40;1.00;;;;;;5490653;26;20898;-44
2024/04/12 12:51:12;;;;;;;4.50;2.27;;;32.00;1.00;;;;;;5524911;25;20640;-46
2024/04/12 12:53:43;;;;;;;3.10;2.80;;;32.00;1.00;;;;;;5522912;25;20227;-45
2024/04/12 12:56:09;;;;;;;3.57;2.40;;;32.00;1.00;;;;;;5522896;26;20436;-44
2024/04/12 12:58:37;;;;;;;4.30;2.33;;;31.60;1.00;;;;;;5487625;26;20556;-53
2024/04/12 13:01:07;;;;;;;3.43;2.83;;;31.40;1.00;;;;;;5520788;25;20244;-48
2024/04/12 13:03:35;;;;;;;3.20;2.87;;;31.40;1.00;;;;;;5523295;25;20622;-52
2024/04/12 13:06:06;;;;;;;3.50;2.90;;;31.20;1.00;;;;;;5525869;25;20945;-55
2024/04/12 13:08:33;;;;;;;3.80;2.40;;;30.70;1.00;;;;;;5526375;25;20464;-49
2024/04/12 13:10:59;;;;;;;2.70;2.40;;;30.50;1.00;;;;;;5525327;25;20473;-53
2024/04/12 13:13:26;;;;;;;4.93;2.87;;;30.80;1.00;;;;;;5520861;25;20644;-46
2024/04/12 13:15:55;;;;;;;5.03;2.90;;;31.00;1.00;;;;;;5519893;25;20247;-44
2024/04/12 13:18:22;;;;;;;3.53;2.80;;;31.20;1.00;;;;;;5522681;25;20714;-44
2024/04/12 13:20:50;;;;;;;4.60;3.87;;;30.90;1.00;;;;;;5523468;25;20968;-44
2024/04/12 13:23:17;;;;;;;4.87;3.27;;;30.00;1.00;;;;;;5521926;25;20722;-43
2024/04/12 13:25:45;;;;;;;4.57;3.40;;;29.80;1.00;;;;;;5489939;26;20542;-43
2024/04/12 13:28:14;;;;;;;4.30;3.10;;;29.90;1.00;;;;;;5521876;25;20738;-45
2024/04/12 13:30:40;;;;;;;6.10;2.90;;;30.20;1.00;;;;;;5526561;25;20428;-47
2024/04/12 13:33:08;;;;;;;3.67;1.97;;;30.90;1.00;;;;;;5526903;25;20873;-44
2024/04/12 13:35:40;;;;;;;5.20;3.40;;;32.00;1.00;;;;;;5530376;26;20492;-43
2024/04/12 13:38:13;;;;;;;7.40;4.00;;;32.70;1.00;;;;;;5528633;25;20421;-43
2024/04/12 13:40:42;;;;;;;6.67;4.27;;;33.20;1.00;;;;;;5495551;26;20453;-44
2024/04/12 13:43:13;;;;;;;5.20;4.17;;;33.70;1.00;;;;;;5530678;25;20444;-46
2024/04/12 13:51:10;;;;;;;7.27;4.07;;;34.00;1.00;;;;;;5526709;25;20524;-48
2024/04/12 13:53:36;;;;;;;5.10;3.70;;;33.90;1.00;;;;;;5527506;25;20783;-45
2024/04/12 13:58:49;;;;;;;4.70;3.50;;;33.70;1.00;;;;;;5528793;25;20315;-45
2024/04/12 14:01:17;;;;;;;3.90;3.50;;;33.40;1.00;;;;;;5528071;25;20704;-44
2024/04/12 14:03:43;;;;;;;4.60;3.63;;;33.40;1.00;;;;;;5496216;26;20673;-43
2024/04/12 14:06:08;;;;;;;8.43;3.70;;;33.40;1.00;;;;;;5527442;25;20509;-47
2024/04/12 14:08:34;;;;;;;6.80;4.47;;;33.40;1.00;;;;;;5496604;26;20499;-46
2024/04/12 14:11:01;;;;;;;5.53;4.50;;;33.30;1.00;;;;;;5529529;25;20211;-44
2024/04/12 14:13:28;;;;;;;7.37;3.60;;;33.20;1.00;;;;;;5529806;25;20262;-47
2024/04/12 14:15:54;;;;;;;7.87;4.20;;;33.30;1.00;;;;;;5527782;25;20445;-44
2024/04/12 14:18:19;;;;;;;6.30;3.83;;;33.40;1.00;;;;;;5528631;25;20507;-46
2024/04/12 14:20:45;;;;;;;7.57;3.50;;;33.30;1.00;;;;;;5529246;25;20231;-42
2024/04/12 14:23:10;;;;;;;5.20;3.30;;;32.90;1.00;;;;;;5529649;25;20250;-43
2024/04/12 14:25:36;;;;;;;6.63;3.00;;;32.80;1.00;;;;;;5528276;25;20216;-43
2024/04/12 14:28:02;;;;;;;4.27;3.10;;;32.70;1.00;;;;;;5528285;25;20357;-43
2024/04/12 14:30:28;;;;;;;4.67;4.27;;;32.60;1.00;;;;;;5530661;25;20228;-42
2024/04/12 14:32:53;;;;;;;7.57;4.30;;;32.20;1.00;;;;;;5530134;25;20447;-43
2024/04/12 14:35:19;;;;;;;5.30;3.40;;;31.80;1.00;;;;;;5528876;25;20441;-46
2024/04/12 14:37:46;;;;;;;4.80;2.87;;;31.50;1.00;;;;;;5528588;25;20463;-47
2024/04/12 14:40:21;;;;;;;5.90;4.47;;;31.50;1.00;;;;;;5526463;25;20537;-46
2024/04/12 14:42:47;;;;;;;6.73;3.83;;;31.80;1.00;;;;;;5527060;25;20528;-43
2024/04/12 14:45:13;;;;;;;5.03;3.40;;;32.00;1.00;;;;;;5524588;25;20471;-43
2024/04/12 14:47:40;;;;;;;6.70;3.70;;;32.10;1.00;;;;;;5491904;26;20476;-45